sensor_id;sensor_type;location;lat;lon;timestamp;pressure;altitude;pressure_sealevel;temperature;humidity
58967;BME280;44744;51.894;5.080;2023-11-21T00:00:17;101193.90;;;7.44;94.96
58967;BME280;44744;51.894;5.080;2023-11-21T00:01:17;101193.05;;;7.43;94.76
58967;BME280;44744;51.894;5.080;2023-11-21T00:02:18;101190.61;;;7.42;95.06
58967;BME280;44744;51.894;5.080;2023-11-21T00:03:18;101190.29;;;7.41;94.82
58967;BME280;44744;51.894;5.080;2023-11-21T00:04:36;101189.64;;;7.40;94.96
58967;BME280;44744;51.894;5.080;2023-11-21T00:05:36;101189.52;;;7.39;95.04
58967;BME280;44744;51.894;5.080;2023-11-21T00:06:36;101189.02;;;7.37;94.95
58967;BME280;44744;51.894;5.080;2023-11-21T00:07:37;101190.97;;;7.37;94.89
58967;BME280;44744;51.894;5.080;2023-11-21T00:08:37;101193.43;;;7.37;94.92
58967;BME280;44744;51.894;5.080;2023-11-21T00:09:45;101194.54;;;7.36;95.04
58967;BME280;44744;51.894;5.080;2023-11-21T00:10:45;101196.83;;;7.35;95.03
58967;BME280;44744;51.894;5.080;2023-11-21T00:11:48;101198.32;;;7.33;94.80
58967;BME280;44744;51.894;5.080;2023-11-21T00:12:48;101201.66;;;7.33;94.82
58967;BME280;44744;51.894;5.080;2023-11-21T00:13:49;101196.44;;;7.31;94.90
58967;BME280;44744;51.894;5.080;2023-11-21T00:14:50;101200.36;;;7.30;95.05
58967;BME280;44744;51.894;5.080;2023-11-21T00:15:50;101201.64;;;7.29;94.83
58967;BME280;44744;51.894;5.080;2023-11-21T00:16:50;101202.38;;;7.28;94.87
58967;BME280;44744;51.894;5.080;2023-11-21T00:17:51;101202.95;;;7.26;94.65
58967;BME280;44744;51.894;5.080;2023-11-21T00:18:51;101205.10;;;7.25;94.63
58967;BME280;44744;51.894;5.080;2023-11-21T00:19:51;101205.70;;;7.24;94.89
58967;BME280;44744;51.894;5.080;2023-11-21T00:20:51;101204.86;;;7.22;94.75
58967;BME280;44744;51.894;5.080;2023-11-21T00:21:51;101207.85;;;7.22;94.76
58967;BME280;44744;51.894;5.080;2023-11-21T00:22:51;101210.00;;;7.22;94.82
58967;BME280;44744;51.894;5.080;2023-11-21T00:23:52;101208.08;;;7.21;94.85
58967;BME280;44744;51.894;5.080;2023-11-21T00:24:52;101212.00;;;7.20;94.90
58967;BME280;44744;51.894;5.080;2023-11-21T00:25:52;101210.07;;;7.20;94.86
58967;BME280;44744;51.894;5.080;2023-11-21T00:26:52;101209.23;;;7.18;94.96
58967;BME280;44744;51.894;5.080;2023-11-21T00:27:53;101209.96;;;7.17;94.87
58967;BME280;44744;51.894;5.080;2023-11-21T00:28:55;101212.11;;;7.16;94.82
58967;BME280;44744;51.894;5.080;2023-11-21T00:29:56;101210.05;;;7.14;94.81
58967;BME280;44744;51.894;5.080;2023-11-21T00:30:56;101210.98;;;7.13;94.85
58967;BME280;44744;51.894;5.080;2023-11-21T00:31:56;101213.98;;;7.13;94.85
58967;BME280;44744;51.894;5.080;2023-11-21T00:32:57;101215.08;;;7.11;94.81
58967;BME280;44744;51.894;5.080;2023-11-21T00:34:03;101218.23;;;7.11;94.79
58967;BME280;44744;51.894;5.080;2023-11-21T00:35:03;101216.39;;;7.09;95.10
58967;BME280;44744;51.894;5.080;2023-11-21T00:36:06;101217.44;;;7.10;94.78
58967;BME280;44744;51.894;5.080;2023-11-21T00:37:09;101219.73;;;7.09;94.82
58967;BME280;44744;51.894;5.080;2023-11-21T00:38:09;101219.95;;;7.08;94.84
58967;BME280;44744;51.894;5.080;2023-11-21T00:39:10;101215.61;;;7.07;94.87
58967;BME280;44744;51.894;5.080;2023-11-21T00:40:10;101217.77;;;7.05;94.78
58967;BME280;44744;51.894;5.080;2023-11-21T00:41:10;101210.61;;;7.03;94.89
58967;BME280;44744;51.894;5.080;2023-11-21T00:42:11;101212.02;;;7.04;94.87
58967;BME280;44744;51.894;5.080;2023-11-21T00:43:11;101218.21;;;7.03;94.76
58967;BME280;44744;51.894;5.080;2023-11-21T00:44:11;101217.90;;;7.01;94.95
58967;BME280;44744;51.894;5.080;2023-11-21T00:45:12;101219.33;;;7.00;94.76
58967;BME280;44744;51.894;5.080;2023-11-21T00:46:12;101221.30;;;6.99;94.78
58967;BME280;44744;51.894;5.080;2023-11-21T00:47:14;101221.72;;;6.97;94.81
58967;BME280;44744;51.894;5.080;2023-11-21T00:48:15;101223.48;;;6.97;94.72
58967;BME280;44744;51.894;5.080;2023-11-21T00:49:15;101223.52;;;6.96;94.98
58967;BME280;44744;51.894;5.080;2023-11-21T00:50:15;101222.17;;;6.95;94.90
58967;BME280;44744;51.894;5.080;2023-11-21T00:51:15;101226.38;;;6.95;94.76
58967;BME280;44744;51.894;5.080;2023-11-21T00:52:18;101227.10;;;6.94;94.86
58967;BME280;44744;51.894;5.080;2023-11-21T00:53:21;101223.96;;;6.94;94.67
58967;BME280;44744;51.894;5.080;2023-11-21T00:54:22;101226.44;;;6.93;94.92
58967;BME280;44744;51.894;5.080;2023-11-21T00:55:22;101223.65;;;6.92;94.83
58967;BME280;44744;51.894;5.080;2023-11-21T00:56:22;101223.16;;;6.92;94.82
58967;BME280;44744;51.894;5.080;2023-11-21T00:57:23;101225.27;;;6.91;94.81
58967;BME280;44744;51.894;5.080;2023-11-21T00:58:24;101224.79;;;6.90;94.76
58967;BME280;44744;51.894;5.080;2023-11-21T00:59:26;101223.94;;;6.89;94.83
58967;BME280;44744;51.894;5.080;2023-11-21T01:00:26;101222.38;;;6.88;94.76
58967;BME280;44744;51.894;5.080;2023-11-21T01:01:26;101225.59;;;6.87;94.90
58967;BME280;44744;51.894;5.080;2023-11-21T01:02:26;101228.56;;;6.87;94.88
58967;BME280;44744;51.894;5.080;2023-11-21T01:03:27;101228.77;;;6.87;94.91
58967;BME280;44744;51.894;5.080;2023-11-21T01:04:27;101232.33;;;6.85;94.82
58967;BME280;44744;51.894;5.080;2023-11-21T01:05:27;101234.99;;;6.84;94.88
58967;BME280;44744;51.894;5.080;2023-11-21T01:06:27;101238.14;;;6.84;94.88
58967;BME280;44744;51.894;5.080;2023-11-21T01:07:28;101236.79;;;6.83;94.92
58967;BME280;44744;51.894;5.080;2023-11-21T01:08:28;101241.00;;;6.83;94.97
58967;BME280;44744;51.894;5.080;2023-11-21T01:09:31;101239.58;;;6.84;95.20
58967;BME280;44744;51.894;5.080;2023-11-21T01:10:31;101238.37;;;6.83;95.07
58967;BME280;44744;51.894;5.080;2023-11-21T01:11:34;101242.94;;;6.83;95.08
58967;BME280;44744;51.894;5.080;2023-11-21T01:12:35;101238.91;;;6.83;94.98
58967;BME280;44744;51.894;5.080;2023-11-21T01:13:35;101239.98;;;6.82;94.96
58967;BME280;44744;51.894;5.080;2023-11-21T01:14:36;101239.67;;;6.81;94.86
58967;BME280;44744;51.894;5.080;2023-11-21T01:15:42;101240.04;;;6.80;94.97
58967;BME280;44744;51.894;5.080;2023-11-21T01:16:42;101243.38;;;6.80;94.98
58967;BME280;44744;51.894;5.080;2023-11-21T01:17:42;101241.27;;;6.79;94.95
58967;BME280;44744;51.894;5.080;2023-11-21T01:18:45;101244.79;;;6.80;95.11
58967;BME280;44744;51.894;5.080;2023-11-21T01:19:45;101247.48;;;6.79;94.97
58967;BME280;44744;51.894;5.080;2023-11-21T01:20:53;101243.92;;;6.80;94.94
58967;BME280;44744;51.894;5.080;2023-11-21T01:21:53;101243.27;;;6.78;95.11
58967;BME280;44744;51.894;5.080;2023-11-21T01:22:53;101243.62;;;6.78;95.01
58967;BME280;44744;51.894;5.080;2023-11-21T01:23:53;101244.18;;;6.78;95.12
58967;BME280;44744;51.894;5.080;2023-11-21T01:24:53;101245.06;;;6.77;94.98
58967;BME280;44744;51.894;5.080;2023-11-21T01:25:55;101247.35;;;6.77;95.01
58967;BME280;44744;51.894;5.080;2023-11-21T01:26:56;101249.30;;;6.76;94.98
58967;BME280;44744;51.894;5.080;2023-11-21T01:27:56;101249.71;;;6.75;94.91
58967;BME280;44744;51.894;5.080;2023-11-21T01:28:56;101250.25;;;6.75;94.96
58967;BME280;44744;51.894;5.080;2023-11-21T01:29:56;101255.36;;;6.74;95.09
58967;BME280;44744;51.894;5.080;2023-11-21T01:30:59;101253.08;;;6.74;94.98
58967;BME280;44744;51.894;5.080;2023-11-21T01:31:59;101255.88;;;6.74;95.13
58967;BME280;44744;51.894;5.080;2023-11-21T01:33:00;101254.02;;;6.72;95.03
58967;BME280;44744;51.894;5.080;2023-11-21T01:34:00;101253.64;;;6.73;94.97
58967;BME280;44744;51.894;5.080;2023-11-21T01:35:00;101254.53;;;6.73;94.96
58967;BME280;44744;51.894;5.080;2023-11-21T01:36:03;101262.28;;;6.72;95.03
58967;BME280;44744;51.894;5.080;2023-11-21T01:37:04;101263.52;;;6.72;95.01
58967;BME280;44744;51.894;5.080;2023-11-21T01:38:07;101260.88;;;6.72;95.00
58967;BME280;44744;51.894;5.080;2023-11-21T01:39:07;101263.71;;;6.71;95.09
58967;BME280;44744;51.894;5.080;2023-11-21T01:40:08;101266.86;;;6.72;95.17
58967;BME280;44744;51.894;5.080;2023-11-21T01:41:11;101266.84;;;6.73;95.14
58967;BME280;44744;51.894;5.080;2023-11-21T01:42:11;101264.58;;;6.72;95.10
58967;BME280;44744;51.894;5.080;2023-11-21T01:43:11;101266.83;;;6.73;95.12
58967;BME280;44744;51.894;5.080;2023-11-21T01:44:11;101264.20;;;6.73;95.14
58967;BME280;44744;51.894;5.080;2023-11-21T01:45:12;101267.20;;;6.72;95.14
58967;BME280;44744;51.894;5.080;2023-11-21T01:46:12;101266.00;;;6.72;94.93
58967;BME280;44744;51.894;5.080;2023-11-21T01:47:12;101262.14;;;6.71;94.90
58967;BME280;44744;51.894;5.080;2023-11-21T01:48:13;101267.79;;;6.70;94.99
58967;BME280;44744;51.894;5.080;2023-11-21T01:49:13;101268.16;;;6.70;95.00
58967;BME280;44744;51.894;5.080;2023-11-21T01:50:14;101269.55;;;6.70;94.94
58967;BME280;44744;51.894;5.080;2023-11-21T01:51:15;101267.83;;;6.69;94.98
58967;BME280;44744;51.894;5.080;2023-11-21T01:52:16;101269.77;;;6.69;94.93
58967;BME280;44744;51.894;5.080;2023-11-21T01:53:16;101273.63;;;6.69;95.07
58967;BME280;44744;51.894;5.080;2023-11-21T01:54:19;101268.24;;;6.68;95.06
58967;BME280;44744;51.894;5.080;2023-11-21T01:55:20;101269.95;;;6.69;95.07
58967;BME280;44744;51.894;5.080;2023-11-21T01:56:20;101269.78;;;6.68;95.14
58967;BME280;44744;51.894;5.080;2023-11-21T01:57:21;101272.61;;;6.68;95.10
58967;BME280;44744;51.894;5.080;2023-11-21T01:58:21;101277.52;;;6.68;95.24
58967;BME280;44744;51.894;5.080;2023-11-21T01:59:22;101279.11;;;6.68;95.25
58967;BME280;44744;51.894;5.080;2023-11-21T02:00:22;101282.11;;;6.68;95.25
58967;BME280;44744;51.894;5.080;2023-11-21T02:01:23;101283.33;;;6.69;95.34
58967;BME280;44744;51.894;5.080;2023-11-21T02:02:38;101283.67;;;6.69;95.28
58967;BME280;44744;51.894;5.080;2023-11-21T02:03:38;101285.24;;;6.69;95.40
58967;BME280;44744;51.894;5.080;2023-11-21T02:04:38;101289.08;;;6.70;95.38
58967;BME280;44744;51.894;5.080;2023-11-21T02:05:39;101288.36;;;6.70;95.45
58967;BME280;44744;51.894;5.080;2023-11-21T02:06:39;101288.70;;;6.70;95.47
58967;BME280;44744;51.894;5.080;2023-11-21T02:07:39;101286.08;;;6.70;95.45
58967;BME280;44744;51.894;5.080;2023-11-21T02:08:40;101288.16;;;6.71;95.33
58967;BME280;44744;51.894;5.080;2023-11-21T02:09:40;101289.92;;;6.71;95.40
58967;BME280;44744;51.894;5.080;2023-11-21T02:10:43;101290.63;;;6.71;95.43
58967;BME280;44744;51.894;5.080;2023-11-21T02:11:43;101292.88;;;6.72;95.38
58967;BME280;44744;51.894;5.080;2023-11-21T02:12:44;101294.97;;;6.72;95.44
58967;BME280;44744;51.894;5.080;2023-11-21T02:13:44;101294.43;;;6.73;95.47
58967;BME280;44744;51.894;5.080;2023-11-21T02:14:44;101298.79;;;6.74;95.56
58967;BME280;44744;51.894;5.080;2023-11-21T02:15:44;101296.48;;;6.74;95.68
58967;BME280;44744;51.894;5.080;2023-11-21T02:16:45;101297.00;;;6.75;95.70
58967;BME280;44744;51.894;5.080;2023-11-21T02:17:48;101293.98;;;6.75;95.83
58967;BME280;44744;51.894;5.080;2023-11-21T02:18:48;101298.17;;;6.76;95.77
58967;BME280;44744;51.894;5.080;2023-11-21T02:19:49;101299.56;;;6.77;95.82
58967;BME280;44744;51.894;5.080;2023-11-21T02:20:49;101300.60;;;6.78;96.08
58967;BME280;44744;51.894;5.080;2023-11-21T02:21:50;101305.30;;;6.79;96.10
58967;BME280;44744;51.894;5.080;2023-11-21T02:22:50;101303.15;;;6.80;96.13
58967;BME280;44744;51.894;5.080;2023-11-21T02:23:51;101305.77;;;6.82;96.12
58967;BME280;44744;51.894;5.080;2023-11-21T02:24:54;101303.61;;;6.82;96.11
58967;BME280;44744;51.894;5.080;2023-11-21T02:26:12;101303.04;;;6.84;96.19
58967;BME280;44744;51.894;5.080;2023-11-21T02:27:12;101305.65;;;6.85;96.26
58967;BME280;44744;51.894;5.080;2023-11-21T02:28:20;101308.41;;;6.87;96.17
58967;BME280;44744;51.894;5.080;2023-11-21T02:29:20;101310.48;;;6.88;96.33
58967;BME280;44744;51.894;5.080;2023-11-21T02:30:21;101312.02;;;6.89;96.35
58967;BME280;44744;51.894;5.080;2023-11-21T02:31:30;101312.02;;;6.89;96.41
58967;BME280;44744;51.894;5.080;2023-11-21T02:32:30;101310.06;;;6.90;96.39
58967;BME280;44744;51.894;5.080;2023-11-21T02:33:30;101313.89;;;6.92;96.45
58967;BME280;44744;51.894;5.080;2023-11-21T02:34:31;101313.52;;;6.92;96.39
58967;BME280;44744;51.894;5.080;2023-11-21T02:35:34;101315.09;;;6.92;96.45
58967;BME280;44744;51.894;5.080;2023-11-21T02:36:36;101311.72;;;6.93;96.56
58967;BME280;44744;51.894;5.080;2023-11-21T02:37:37;101314.48;;;6.94;96.62
58967;BME280;44744;51.894;5.080;2023-11-21T02:38:55;101318.16;;;6.95;96.65
58967;BME280;44744;51.894;5.080;2023-11-21T02:39:58;101320.56;;;6.97;96.66
58967;BME280;44744;51.894;5.080;2023-11-21T02:40:58;101318.59;;;6.98;96.76
58967;BME280;44744;51.894;5.080;2023-11-21T02:41:58;101318.20;;;6.99;96.78
58967;BME280;44744;51.894;5.080;2023-11-21T02:43:07;101319.90;;;7.01;96.75
58967;BME280;44744;51.894;5.080;2023-11-21T02:44:08;101316.39;;;7.01;96.83
58967;BME280;44744;51.894;5.080;2023-11-21T02:45:08;101314.58;;;7.02;96.95
58967;BME280;44744;51.894;5.080;2023-11-21T02:46:08;101313.67;;;7.03;96.86
58967;BME280;44744;51.894;5.080;2023-11-21T02:47:09;101313.30;;;7.04;96.90
58967;BME280;44744;51.894;5.080;2023-11-21T02:48:09;101310.83;;;7.04;96.88
58967;BME280;44744;51.894;5.080;2023-11-21T02:49:09;101313.58;;;7.06;97.03
58967;BME280;44744;51.894;5.080;2023-11-21T02:50:09;101310.08;;;7.06;97.04
58967;BME280;44744;51.894;5.080;2023-11-21T02:51:10;101311.62;;;7.07;96.96
58967;BME280;44744;51.894;5.080;2023-11-21T02:52:10;101317.36;;;7.09;97.08
58967;BME280;44744;51.894;5.080;2023-11-21T02:53:15;101313.83;;;7.09;97.14
58967;BME280;44744;51.894;5.080;2023-11-21T02:54:15;101314.34;;;7.09;96.98
58967;BME280;44744;51.894;5.080;2023-11-21T02:55:15;101318.16;;;7.11;97.21
58967;BME280;44744;51.894;5.080;2023-11-21T02:56:18;101316.20;;;7.12;97.18
58967;BME280;44744;51.894;5.080;2023-11-21T02:57:19;101315.82;;;7.12;97.23
58967;BME280;44744;51.894;5.080;2023-11-21T02:58:22;101317.92;;;7.13;97.16
58967;BME280;44744;51.894;5.080;2023-11-21T02:59:25;101317.19;;;7.14;97.23
58967;BME280;44744;51.894;5.080;2023-11-21T03:00:25;101317.34;;;7.15;97.32
58967;BME280;44744;51.894;5.080;2023-11-21T03:01:28;101317.52;;;7.15;97.30
58967;BME280;44744;51.894;5.080;2023-11-21T03:02:29;101315.16;;;7.17;97.30
58967;BME280;44744;51.894;5.080;2023-11-21T03:03:31;101315.15;;;7.17;97.40
58967;BME280;44744;51.894;5.080;2023-11-21T03:04:31;101314.92;;;7.19;97.42
58967;BME280;44744;51.894;5.080;2023-11-21T03:05:31;101314.73;;;7.20;97.62
58967;BME280;44744;51.894;5.080;2023-11-21T03:06:32;101314.85;;;7.21;97.31
58967;BME280;44744;51.894;5.080;2023-11-21T03:07:32;101312.20;;;7.21;97.61
58967;BME280;44744;51.894;5.080;2023-11-21T03:08:32;101312.14;;;7.23;97.46
58967;BME280;44744;51.894;5.080;2023-11-21T03:09:32;101307.73;;;7.24;97.47
58967;BME280;44744;51.894;5.080;2023-11-21T03:10:32;101309.11;;;7.24;97.68
58967;BME280;44744;51.894;5.080;2023-11-21T03:11:33;101305.90;;;7.26;97.72
58967;BME280;44744;51.894;5.080;2023-11-21T03:12:33;101306.74;;;7.27;97.57
58967;BME280;44744;51.894;5.080;2023-11-21T03:13:36;101306.20;;;7.27;97.65
58967;BME280;44744;51.894;5.080;2023-11-21T03:14:38;101301.93;;;7.28;97.75
58967;BME280;44744;51.894;5.080;2023-11-21T03:15:41;101303.15;;;7.29;97.68
58967;BME280;44744;51.894;5.080;2023-11-21T03:16:42;101302.25;;;7.30;97.61
58967;BME280;44744;51.894;5.080;2023-11-21T03:17:45;101303.48;;;7.29;97.66
58967;BME280;44744;51.894;5.080;2023-11-21T03:18:45;101305.56;;;7.30;97.46
58967;BME280;44744;51.894;5.080;2023-11-21T03:19:45;101309.23;;;7.31;97.79
58967;BME280;44744;51.894;5.080;2023-11-21T03:20:45;101312.71;;;7.32;97.78
58967;BME280;44744;51.894;5.080;2023-11-21T03:21:45;101313.73;;;7.33;97.73
58967;BME280;44744;51.894;5.080;2023-11-21T03:22:46;101316.34;;;7.34;97.95
58967;BME280;44744;51.894;5.080;2023-11-21T03:23:48;101319.65;;;7.35;97.89
58967;BME280;44744;51.894;5.080;2023-11-21T03:24:48;101321.21;;;7.35;98.03
58967;BME280;44744;51.894;5.080;2023-11-21T03:25:51;101323.13;;;7.36;98.01
58967;BME280;44744;51.894;5.080;2023-11-21T03:26:52;101322.25;;;7.37;97.90
58967;BME280;44744;51.894;5.080;2023-11-21T03:27:52;101322.73;;;7.37;97.98
58967;BME280;44744;51.894;5.080;2023-11-21T03:28:52;101323.26;;;7.38;98.06
58967;BME280;44744;51.894;5.080;2023-11-21T03:29:52;101320.23;;;7.39;98.03
58967;BME280;44744;51.894;5.080;2023-11-21T03:30:52;101320.04;;;7.40;98.20
58967;BME280;44744;51.894;5.080;2023-11-21T03:31:55;101320.55;;;7.40;98.25
58967;BME280;44744;51.894;5.080;2023-11-21T03:32:56;101321.39;;;7.41;98.34
58967;BME280;44744;51.894;5.080;2023-11-21T03:33:56;101322.08;;;7.41;98.24
58967;BME280;44744;51.894;5.080;2023-11-21T03:34:57;101319.80;;;7.41;98.15
58967;BME280;44744;51.894;5.080;2023-11-21T03:35:57;101322.59;;;7.42;98.28
58967;BME280;44744;51.894;5.080;2023-11-21T03:37:00;101322.91;;;7.43;98.22
58967;BME280;44744;51.894;5.080;2023-11-21T03:38:00;101323.60;;;7.43;98.25
58967;BME280;44744;51.894;5.080;2023-11-21T03:39:02;101327.48;;;7.43;98.14
58967;BME280;44744;51.894;5.080;2023-11-21T03:40:03;101324.45;;;7.44;98.36
58967;BME280;44744;51.894;5.080;2023-11-21T03:41:05;101329.90;;;7.45;98.32
58967;BME280;44744;51.894;5.080;2023-11-21T03:42:05;101329.19;;;7.45;98.39
58967;BME280;44744;51.894;5.080;2023-11-21T03:43:06;101333.02;;;7.46;98.41
58967;BME280;44744;51.894;5.080;2023-11-21T03:44:06;101329.84;;;7.46;98.30
58967;BME280;44744;51.894;5.080;2023-11-21T03:45:09;101333.85;;;7.47;98.39
58967;BME280;44744;51.894;5.080;2023-11-21T03:46:09;101332.94;;;7.48;98.32
58967;BME280;44744;51.894;5.080;2023-11-21T03:47:10;101333.10;;;7.48;98.41
58967;BME280;44744;51.894;5.080;2023-11-21T03:48:10;101335.38;;;7.49;98.36
58967;BME280;44744;51.894;5.080;2023-11-21T03:49:12;101336.23;;;7.49;98.51
58967;BME280;44744;51.894;5.080;2023-11-21T03:50:14;101334.98;;;7.50;98.45
58967;BME280;44744;51.894;5.080;2023-11-21T03:51:14;101330.95;;;7.50;98.39
58967;BME280;44744;51.894;5.080;2023-11-21T03:52:14;101335.48;;;7.51;98.35
58967;BME280;44744;51.894;5.080;2023-11-21T03:53:15;101333.21;;;7.50;98.37
58967;BME280;44744;51.894;5.080;2023-11-21T03:54:15;101334.23;;;7.51;98.39
58967;BME280;44744;51.894;5.080;2023-11-21T03:55:15;101335.45;;;7.52;98.55
58967;BME280;44744;51.894;5.080;2023-11-21T03:56:15;101338.58;;;7.53;98.59
58967;BME280;44744;51.894;5.080;2023-11-21T03:57:16;101341.38;;;7.53;98.56
58967;BME280;44744;51.894;5.080;2023-11-21T03:58:16;101339.26;;;7.54;98.62
58967;BME280;44744;51.894;5.080;2023-11-21T03:59:16;101339.77;;;7.55;98.67
58967;BME280;44744;51.894;5.080;2023-11-21T04:00:19;101340.65;;;7.55;98.68
58967;BME280;44744;51.894;5.080;2023-11-21T04:01:20;101343.41;;;7.56;98.57
58967;BME280;44744;51.894;5.080;2023-11-21T04:02:20;101344.13;;;7.56;98.56
58967;BME280;44744;51.894;5.080;2023-11-21T04:03:21;101346.75;;;7.56;98.56
58967;BME280;44744;51.894;5.080;2023-11-21T04:04:21;101348.51;;;7.56;98.62
58967;BME280;44744;51.894;5.080;2023-11-21T04:05:21;101351.68;;;7.56;98.46
58967;BME280;44744;51.894;5.080;2023-11-21T04:06:21;101351.67;;;7.57;98.55
58967;BME280;44744;51.894;5.080;2023-11-21T04:07:21;101354.12;;;7.57;98.61
58967;BME280;44744;51.894;5.080;2023-11-21T04:08:22;101356.39;;;7.57;98.63
58967;BME280;44744;51.894;5.080;2023-11-21T04:09:22;101358.14;;;7.58;98.75
58967;BME280;44744;51.894;5.080;2023-11-21T04:10:25;101360.95;;;7.58;98.63
58967;BME280;44744;51.894;5.080;2023-11-21T04:11:27;101362.86;;;7.58;98.70
58967;BME280;44744;51.894;5.080;2023-11-21T04:12:28;101362.34;;;7.59;98.65
58967;BME280;44744;51.894;5.080;2023-11-21T04:13:28;101363.39;;;7.58;98.77
58967;BME280;44744;51.894;5.080;2023-11-21T04:14:28;101364.44;;;7.59;98.49
58967;BME280;44744;51.894;5.080;2023-11-21T04:15:29;101364.61;;;7.59;98.79
58967;BME280;44744;51.894;5.080;2023-11-21T04:16:29;101361.82;;;7.58;98.78
58967;BME280;44744;51.894;5.080;2023-11-21T04:17:32;101365.85;;;7.59;98.65
58967;BME280;44744;51.894;5.080;2023-11-21T04:18:32;101369.17;;;7.59;98.67
58967;BME280;44744;51.894;5.080;2023-11-21T04:19:32;101368.32;;;7.59;98.66
58967;BME280;44744;51.894;5.080;2023-11-21T04:20:38;101368.98;;;7.59;98.73
58967;BME280;44744;51.894;5.080;2023-11-21T04:21:38;101369.70;;;7.59;98.81
58967;BME280;44744;51.894;5.080;2023-11-21T04:22:43;101370.73;;;7.60;98.75
58967;BME280;44744;51.894;5.080;2023-11-21T04:23:43;101371.96;;;7.60;98.79
58967;BME280;44744;51.894;5.080;2023-11-21T04:24:43;101372.34;;;7.59;98.74
58967;BME280;44744;51.894;5.080;2023-11-21T04:25:44;101371.98;;;7.60;98.57
58967;BME280;44744;51.894;5.080;2023-11-21T04:26:44;101373.39;;;7.60;98.60
58967;BME280;44744;51.894;5.080;2023-11-21T04:27:52;101373.55;;;7.60;98.85
58967;BME280;44744;51.894;5.080;2023-11-21T04:28:52;101376.89;;;7.60;98.79
58967;BME280;44744;51.894;5.080;2023-11-21T04:29:52;101374.44;;;7.60;98.92
58967;BME280;44744;51.894;5.080;2023-11-21T04:30:52;101371.59;;;7.60;98.80
58967;BME280;44744;51.894;5.080;2023-11-21T04:31:52;101376.89;;;7.60;98.87
58967;BME280;44744;51.894;5.080;2023-11-21T04:32:52;101378.11;;;7.60;98.62
58967;BME280;44744;51.894;5.080;2023-11-21T04:34:05;101377.07;;;7.60;98.73
58967;BME280;44744;51.894;5.080;2023-11-21T04:35:05;101380.59;;;7.60;98.71
58967;BME280;44744;51.894;5.080;2023-11-21T04:36:06;101386.04;;;7.60;98.88
58967;BME280;44744;51.894;5.080;2023-11-21T04:37:15;101388.33;;;7.60;98.72
58967;BME280;44744;51.894;5.080;2023-11-21T04:38:15;101386.39;;;7.60;98.81
58967;BME280;44744;51.894;5.080;2023-11-21T04:39:15;101391.52;;;7.60;98.99
58967;BME280;44744;51.894;5.080;2023-11-21T04:40:15;101393.09;;;7.60;98.98
58967;BME280;44744;51.894;5.080;2023-11-21T04:41:15;101397.50;;;7.60;98.72
58967;BME280;44744;51.894;5.080;2023-11-21T04:42:16;101399.42;;;7.59;98.77
58967;BME280;44744;51.894;5.080;2023-11-21T04:43:19;101404.00;;;7.60;98.99
58967;BME280;44744;51.894;5.080;2023-11-21T04:44:19;101403.11;;;7.60;98.94
58967;BME280;44744;51.894;5.080;2023-11-21T04:45:19;101406.13;;;7.60;98.94
58967;BME280;44744;51.894;5.080;2023-11-21T04:46:19;101407.87;;;7.60;99.06
58967;BME280;44744;51.894;5.080;2023-11-21T04:47:20;101404.20;;;7.59;98.88
58967;BME280;44744;51.894;5.080;2023-11-21T04:48:23;101408.21;;;7.60;99.02
58967;BME280;44744;51.894;5.080;2023-11-21T04:49:23;101400.48;;;7.60;99.00
58967;BME280;44744;51.894;5.080;2023-11-21T04:50:23;101401.19;;;7.60;99.09
58967;BME280;44744;51.894;5.080;2023-11-21T04:51:23;101398.36;;;7.60;99.09
58967;BME280;44744;51.894;5.080;2023-11-21T04:52:24;101398.16;;;7.61;99.09
58967;BME280;44744;51.894;5.080;2023-11-21T04:53:24;101396.40;;;7.61;99.10
58967;BME280;44744;51.894;5.080;2023-11-21T04:54:24;101400.98;;;7.61;99.14
58967;BME280;44744;51.894;5.080;2023-11-21T04:55:24;101403.06;;;7.62;99.25
58967;BME280;44744;51.894;5.080;2023-11-21T04:56:25;101402.20;;;7.62;99.05
58967;BME280;44744;51.894;5.080;2023-11-21T04:57:25;101405.53;;;7.62;99.18
58967;BME280;44744;51.894;5.080;2023-11-21T04:58:25;101408.33;;;7.62;99.22
58967;BME280;44744;51.894;5.080;2023-11-21T04:59:28;101406.41;;;7.62;99.26
58967;BME280;44744;51.894;5.080;2023-11-21T05:00:35;101408.86;;;7.63;99.47
58967;BME280;44744;51.894;5.080;2023-11-21T05:01:36;101409.18;;;7.63;99.37
58967;BME280;44744;51.894;5.080;2023-11-21T05:02:36;101410.03;;;7.64;99.45
58967;BME280;44744;51.894;5.080;2023-11-21T05:03:37;101409.87;;;7.63;99.45
58967;BME280;44744;51.894;5.080;2023-11-21T05:04:37;101411.26;;;7.64;99.58
58967;BME280;44744;51.894;5.080;2023-11-21T05:05:40;101412.27;;;7.65;99.42
58967;BME280;44744;51.894;5.080;2023-11-21T05:06:40;101414.73;;;7.65;99.50
58967;BME280;44744;51.894;5.080;2023-11-21T05:07:40;101414.58;;;7.65;99.46
58967;BME280;44744;51.894;5.080;2023-11-21T05:08:40;101416.66;;;7.66;99.45
58967;BME280;44744;51.894;5.080;2023-11-21T05:09:41;101419.64;;;7.66;99.60
58967;BME280;44744;51.894;5.080;2023-11-21T05:10:41;101420.84;;;7.67;99.56
58967;BME280;44744;51.894;5.080;2023-11-21T05:11:42;101419.79;;;7.67;99.62
58967;BME280;44744;51.894;5.080;2023-11-21T05:12:42;101422.39;;;7.68;99.72
58967;BME280;44744;51.894;5.080;2023-11-21T05:13:51;101421.67;;;7.68;99.76
58967;BME280;44744;51.894;5.080;2023-11-21T05:14:51;101424.66;;;7.68;99.78
58967;BME280;44744;51.894;5.080;2023-11-21T05:15:51;101422.86;;;7.69;99.55
58967;BME280;44744;51.894;5.080;2023-11-21T05:16:52;101428.32;;;7.69;99.60
58967;BME280;44744;51.894;5.080;2023-11-21T05:17:55;101429.55;;;7.69;99.66
58967;BME280;44744;51.894;5.080;2023-11-21T05:18:55;101432.02;;;7.69;99.52
58967;BME280;44744;51.894;5.080;2023-11-21T05:19:55;101430.82;;;7.68;99.50
58967;BME280;44744;51.894;5.080;2023-11-21T05:20:55;101434.67;;;7.69;99.40
58967;BME280;44744;51.894;5.080;2023-11-21T05:21:55;101434.01;;;7.68;99.47
58967;BME280;44744;51.894;5.080;2023-11-21T05:22:56;101433.84;;;7.68;99.48
58967;BME280;44744;51.894;5.080;2023-11-21T05:23:56;101436.29;;;7.68;99.57